Latest Weather Observations for Gympie

IDQ60801

Issued at 10:32 pm EST Friday 20 July 2018 (issued every 10 minutes, with the page automatically refreshed every 10 minutes)

About weather observations | Map of weather stations | Latest weather observations for QLD | Other Formats
Station Details ID: 040093 Name: GYMPIE Lat: -26.18 Lon: 152.64 Height: 64.5 m
Data from the previous 72 hours. | See also: Recent months at Gympie
Date/Time
EST
Temp
°C
App
Temp
°C
Dew
Point
°C
Rel
Hum
%
Delta-T
°C
Wind Press
QNH
hPa
Press
MSL
hPa
Rain since
9am
mm
Dir  Spd
km/h
Gust
km/h
Spd
kts
Gust
kts
20/10:30pm 16.8 16.8 13.7 82 1.8 SW 6 11 3 6 1017.2 1017.2 0.0
20/10:00pm 17.0 17.2 14.3 84 1.5 WNW 6 9 3 5 1016.9 1016.9 0.0
20/09:30pm 16.6 17.6 14.4 87 1.3 NW 2 6 1 3 1016.5 1016.5 0.0
20/09:00pm 16.1 17.3 13.9 87 1.2 CALM 0 2 0 1 1016.4 1016.4 0.0
20/08:30pm 15.2 15.4 13.2 88 1.1 SW 4 7 2 4 1016.2 1016.2 0.0
20/08:00pm 15.5 16.4 13.0 85 1.4 CALM 0 2 0 1 1015.8 1015.8 0.0
20/07:30pm 15.4 15.7 13.4 88 1.1 N 4 4 2 2 1015.7 1015.7 0.0
20/07:00pm 16.2 17.3 13.5 84 1.5 CALM 0 0 0 0 1015.6 1015.6 0.0
20/06:30pm 17.2 18.1 12.9 76 2.4 CALM 0 0 0 0 1015.5 1015.5 0.0
20/06:00pm 18.7 18.7 13.6 72 2.9 N 6 7 3 4 1015.0 1015.0 0.0
20/05:30pm 19.9 19.7 13.6 67 3.6 N 7 11 4 6 1014.5 1014.5 0.0
20/05:00pm 21.0 20.7 13.4 62 4.4 N 7 11 4 6 1014.5 1014.5 0.0
20/04:30pm 22.1 22.2 14.5 62 4.5 N 7 13 4 7 1014.5 1014.5 0.0
20/04:00pm 21.7 21.8 14.4 63 4.3 NNW 7 11 4 6 1014.4 1014.4 0.0
20/03:30pm 21.6 20.7 13.8 61 4.5 NNW 11 15 6 8 1014.5 1014.5 0.0
20/03:00pm 22.1 19.9 13.2 57 5.1 NNW 17 26 9 14 1014.5 1014.5 0.0
20/02:30pm 22.4 21.4 13.5 57 5.2 NNW 11 20 6 11 1014.5 1014.5 0.0
20/02:00pm 22.3 20.9 13.4 57 5.1 NNW 13 20 7 11 1014.7 1014.7 0.0
20/01:30pm 22.2 19.7 13.5 57 5.0 NNW 19 33 10 18 1014.8 1014.8 0.0
20/01:00pm 21.6 17.3 13.2 59 4.8 NNW 28 37 15 20 1015.0 1015.0 0.0
20/12:30pm 21.6 19.5 13.5 60 4.7 NNW 17 28 9 15 1015.6 1015.6 0.0
20/12:00pm 21.5 18.4 13.4 60 4.7 NNW 22 33 12 18 1016.2 1016.2 0.0
20/11:30am 20.7 17.9 13.2 62 4.3 NNW 20 33 11 18 1016.9 1016.9 0.0
20/11:00am 20.5 17.9 13.2 63 4.2 NNW 19 28 10 15 1017.6 1017.6 0.0
20/10:30am 18.8 17.4 13.4 71 3.1 NNW 13 17 7 9 1018.2 1018.2 0.0
20/10:00am 14.2 15.0 12.4 89 1.0 CALM 0 0 0 0 1018.6 1018.6 0.0
20/09:30am 11.7 11.9 10.6 93 0.6 CALM 0 2 0 1 1019.0 1019.0 0.0
20/09:00am 10.6 10.7 10.1 97 0.3 CALM 0 0 0 0 1019.0 1019.0 0.0
20/08:30am 9.4 9.3 9.4 100 0.0 CALM 0 0 0 0 1019.0 1019.0 0.0
20/08:00am 8.4 8.0 8.4 100 0.0 CALM 0 0 0 0 1019.0 1019.0 0.0
20/07:30am 7.0 6.3 7.0 100 0.0 CALM 0 0 0 0 1018.8 1018.8 0.0
20/07:00am 6.1 5.2 6.1 100 0.0 CALM 0 0 0 0 1018.7 1018.7 0.0
20/06:30am 5.4 4.0 5.4 100 0.0 SW 2 2 1 1 1018.5 1018.5 0.0
20/06:00am 5.5 4.5 5.5 100 0.0 CALM 0 0 0 0 1017.9 1017.9 0.0
20/05:30am 4.9 3.8 4.9 100 0.0 CALM 0 0 0 0 1018.0 1018.0 0.0
20/05:00am 5.0 3.9 5.0 100 0.0 CALM 0 0 0 0 1018.1 1018.1 0.0
20/04:30am 4.6 3.0 4.6 100 0.0 SW 2 6 1 3 1017.9 1017.9 0.0
20/04:00am 4.7 3.5 4.7 100 0.0 CALM 0 0 0 0 1017.4 1017.4 0.0
20/03:30am 5.0 3.9 5.0 100 0.0 CALM 0 0 0 0 1017.5 1017.5 0.0
20/03:00am 5.8 4.5 5.8 100 0.0 WSW 2 6 1 3 1018.1 1018.1 0.0
20/02:30am 4.7 3.5 4.6 99 0.0 CALM 0 0 0 0 1017.9 1017.9 0.0
20/02:00am 5.9 4.9 5.8 99 0.0 CALM 0 0 0 0 1018.7 1018.7 0.0
20/01:30am 5.9 4.5 5.6 98 0.1 SSW 2 6 1 3 1019.0 1019.0 0.0
20/01:00am 6.8 6.0 6.7 99 0.0 CALM 0 0 0 0 1019.5 1019.5 0.0
20/12:30am 7.0 6.3 6.9 99 0.0 CALM 0 0 0 0 1019.8 1019.8 0.0
20/12:00am 6.9 6.1 6.3 96 0.3 CALM 0 0 0 0 1019.9 1019.9 0.0
 
Date/Time
EST
Temp
°C
App
Temp
°C
Dew
Point
°C
Rel
Hum
%
Delta-T
°C
Wind Press
QNH
hPa
Press
MSL
hPa
Rain since
9am
mm
Dir  Spd
km/h
Gust
km/h
Spd
kts
Gust
kts
19/11:30pm 8.3 7.9 8.2 99 0.0 CALM 0 0 0 0 1019.8 1019.8 0.0
19/11:00pm 7.8 7.2 7.2 96 0.3 CALM 0 0 0 0 1019.7 1019.7 0.0
19/10:30pm 8.6 8.1 7.8 95 0.4 CALM 0 0 0 0 1019.9 1019.9 0.0
19/10:00pm 9.3 9.0 8.5 95 0.4 CALM 0 0 0 0 1020.2 1020.2 0.0
19/09:30pm 9.6 9.3 8.5 93 0.5 CALM 0 0 0 0 1020.0 1020.0 0.0
19/09:00pm 10.1 9.7 8.2 88 0.9 CALM 0 0 0 0 1019.8 1019.8 0.0
19/08:30pm 11.3 11.1 9.0 86 1.1 CALM 0 0 0 0 1019.7 1019.7 0.0
19/08:00pm 12.1 11.8 8.8 80 1.6 CALM 0 0 0 0 1019.6 1019.6 0.0
19/07:30pm 13.6 13.4 8.9 73 2.4 CALM 0 0 0 0 1019.4 1019.4 0.0
19/07:00pm 15.2 15.1 9.3 68 3.0 CALM 0 0 0 0 1019.3 1019.3 0.0
19/06:30pm 15.4 14.8 8.9 65 3.3 N 2 6 1 3 1019.1 1019.1 0.0
19/06:00pm 17.7 16.8 9.3 58 4.4 NE 4 7 2 4 1018.7 1018.7 0.0
19/05:30pm 19.3 17.7 8.9 51 5.5 NNE 7 15 4 8 1018.3 1018.3 0.0
19/05:00pm 20.6 18.8 7.9 44 6.6 NE 7 11 4 6 1018.0 1018.0 0.0
19/04:30pm 22.1 20.0 5.9 35 8.2 NNE 6 11 3 6 1017.9 1017.9 0.0
19/04:00pm 22.6 20.2 6.8 36 8.1 NNE 9 15 5 8 1018.0 1018.0 0.0
19/03:30pm 23.1 20.9 6.0 33 8.7 NNE 7 17 4 9 1018.0 1018.0 0.0
19/03:00pm 23.5 21.2 5.9 32 8.9 NNE 7 13 4 7 1018.0 1018.0 0.0
19/02:30pm 23.4 21.3 6.7 34 8.6 NNE 7 13 4 7 1018.2 1018.2 0.0
19/02:00pm 23.7 21.4 5.6 31 9.2 N 7 15 4 8 1018.6 1018.6 0.0
19/01:30pm 23.2 21.3 6.9 35 8.4 NNE 6 13 3 7 1018.9 1018.9 0.0
19/01:00pm 22.9 21.0 4.9 31 8.9 NW 4 13 2 7 1019.5 1019.5 0.0
19/12:30pm 22.4 20.0 5.4 33 8.5 NNW 7 15 4 8 1020.0 1020.0 0.0
19/12:00pm 21.7 17.7 2.9 29 8.9 NNW 13 19 7 10 1020.6 1020.6 0.0
19/11:30am 21.4 19.7 7.6 41 7.2 NNW 6 20 3 11 1021.1 1021.1 0.0
19/11:00am 19.4 18.9 9.3 52 5.3 SE 2 4 1 2 1021.8 1021.8 0.0
19/10:30am 16.2 15.5 8.7 61 3.8 SSE 2 4 1 2 1022.3 1022.3 0.0
19/10:00am 13.9 13.4 7.7 66 3.1 CALM 0 4 0 2 1022.6 1022.6 0.0
19/09:30am 11.5 10.4 6.8 73 2.2 SE 2 4 1 2 1022.7 1022.7 0.0
19/09:00am 9.3 8.2 6.9 85 1.1 ESE 2 4 1 2 1022.8 1022.8 0.0
19/08:30am 6.2 5.2 5.5 95 0.3 CALM 0 0 0 0 1022.7 1022.7 0.0
19/08:00am 4.2 2.9 4.1 99 0.0 CALM 0 0 0 0 1022.7 1022.7 0.0
19/07:30am 2.1 0.4 2.1 100 0.0 CALM 0 0 0 0 1022.5 1022.5 0.0
19/07:00am 1.2 -0.6 1.1 99 0.0 CALM 0 0 0 0 1022.5 1022.5 0.0
19/06:30am 1.0 -0.8 0.9 99 0.0 CALM 0 0 0 0 1022.3 1022.3 0.0
19/06:00am 1.2 -0.6 1.1 99 0.0 CALM 0 0 0 0 1022.1 1022.1 0.0
19/05:30am 1.5 -0.3 1.5 100 0.0 CALM 0 0 0 0 1021.7 1021.7 0.0
19/05:00am 1.4 -0.4 1.3 99 0.0 CALM 0 0 0 0 1021.6 1021.6 0.0
19/04:30am 1.7 0.0 1.6 99 0.0 CALM 0 0 0 0 1021.6 1021.6 0.0
19/04:00am 2.0 0.3 1.9 99 0.0 CALM 0 0 0 0 1021.4 1021.4 0.0
19/03:30am 2.4 0.8 2.3 99 0.0 CALM 0 0 0 0 1021.5 1021.5 0.0
19/03:00am 2.5 0.9 2.2 98 0.1 CALM 0 0 0 0 1021.5 1021.5 0.0
19/02:30am 2.8 1.2 2.4 97 0.2 CALM 0 0 0 0 1021.4 1021.4 0.0
19/02:00am 3.5 2.1 3.4 99 0.0 CALM 0 0 0 0 1021.4 1021.4 0.0
19/01:30am 4.2 2.9 4.1 99 0.0 CALM 0 0 0 0 1021.6 1021.6 0.0
19/01:00am 3.9 2.5 3.5 97 0.2 CALM 0 0 0 0 1021.6 1021.6 0.0
19/12:30am 4.0 2.6 3.6 97 0.2 CALM 0 0 0 0 1021.7 1021.7 0.0
19/12:00am 4.9 3.7 4.5 97 0.2 CALM 0 0 0 0 1021.6 1021.6 0.0
 
Date/Time
EST
Temp
°C
App
Temp
°C
Dew
Point
°C
Rel
Hum
%
Delta-T
°C
Wind Press
QNH
hPa
Press
MSL
hPa
Rain since
9am
mm
Dir  Spd
km/h
Gust
km/h
Spd
kts
Gust
kts
18/11:30pm 5.3 4.1 4.7 96 0.3 CALM 0 0 0 0 1021.7 1021.7 0.0
18/11:00pm 5.6 4.5 5.0 96 0.3 CALM 0 0 0 0 1021.6 1021.6 0.0
18/10:30pm 5.8 4.7 4.9 94 0.4 CALM 0 0 0 0 1021.7 1021.7 0.0
18/10:00pm 6.8 5.8 5.6 92 0.5 CALM 0 0 0 0 1021.7 1021.7 0.0
18/09:30pm 6.9 5.8 5.1 88 0.8 CALM 0 0 0 0 1021.5 1021.5 0.0
18/09:00pm 8.5 7.7 6.3 86 1.0 CALM 0 0 0 0 1021.3 1021.3 0.0
18/08:30pm 8.5 7.6 6.0 84 1.1 CALM 0 0 0 0 1021.2 1021.2 0.0
18/08:00pm 9.7 8.9 6.6 81 1.4 CALM 0 0 0 0 1021.3 1021.3 0.0
18/07:30pm 10.7 9.8 6.1 73 2.1 CALM 0 0 0 0 1021.0 1021.0 0.0
18/07:00pm 11.9 11.1 6.4 69 2.6 CALM 0 0 0 0 1020.8 1020.8 0.0
18/06:30pm 13.4 12.6 6.3 62 3.4 CALM 0 2 0 1 1020.4 1020.4 0.0
18/06:00pm 15.7 14.6 5.3 50 4.9 CALM 0 0 0 0 1020.0 1020.0 0.0
18/05:30pm 18.5 17.0 5.0 41 6.5 E 2 6 1 3 1019.6 1019.6 0.0
18/05:00pm 21.2 19.0 3.4 31 8.5 ESE 4 6 2 3 1019.3 1019.3 0.0
18/04:30pm 21.8 19.2 3.0 29 9.0 SE 6 13 3 7 1019.0 1019.0 0.0
18/04:00pm 22.7 19.8 2.8 27 9.5 SE 7 15 4 8 1018.9 1018.9 0.0
18/03:30pm 23.1 19.9 3.1 27 9.6 SE 9 15 5 8 1018.8 1018.8 0.0
18/03:00pm 23.6 21.1 4.0 28 9.6 SSE 6 9 3 5 1018.8 1018.8 0.0
18/02:30pm 23.9 21.7 3.2 26 10.1 ESE 4 9 2 5 1018.7 1018.7 0.0
18/02:00pm 23.6 21.3 5.0 30 9.3 SE 6 7 3 4 1018.9 1018.9 0.0
18/01:30pm 23.8 21.9 4.7 29 9.5 ESE 4 7 2 4 1019.1 1019.1 0.0
18/01:00pm 23.4 20.8 3.4 27 9.7 ESE 6 11 3 6 1019.5 1019.5 0.0
18/12:30pm 22.9 20.5 2.4 26 9.7 W 4 9 2 5 1019.8 1019.8 0.0
18/12:00pm 22.1 20.5 6.3 36 8.0 SSE 4 6 2 3 1020.3 1020.3 0.0
18/11:30am 20.4 19.4 8.7 47 6.2 SW 4 6 2 3 1020.9 1020.9 0.0
18/11:00am 19.2 19.3 10.2 56 4.8 CALM 0 2 0 1 1021.4 1021.4 0.0
18/10:30am 16.0 15.4 10.3 69 3.0 S 4 6 2 3 1021.8 1021.8 0.0
18/10:00am 13.6 13.2 9.6 77 2.0 S 2 4 1 2 1022.1 1022.1 0.0
18/09:30am 11.5 11.1 8.4 81 1.5 CALM 0 2 0 1 1022.3 1022.3 0.0
18/09:00am 9.1 8.1 7.4 89 0.8 SE 2 4 1 2 1022.4 1022.4 0.0
18/08:30am 6.5 5.6 6.1 97 0.2 CALM 0 0 0 0 1022.2 1022.2 0.0
18/08:00am 4.0 2.7 4.0 100 0.0 CALM 0 0 0 0 1022.1 1022.1 0.0
18/07:30am 2.1 0.4 2.1 100 0.0 CALM 0 0 0 0 1021.8 1021.8 0.0
18/07:00am 1.4 -0.4 1.4 100 0.0 CALM 0 0 0 0 1021.5 1021.5 0.0
18/06:30am 1.6 -0.1 1.6 100 0.0 CALM 0 0 0 0 1021.2 1021.2 0.0
18/06:00am 1.5 -0.3 1.4 99 0.0 CALM 0 0 0 0 1021.2 1021.2 0.0
18/05:30am 1.5 -0.3 1.4 99 0.0 CALM 0 0 0 0 1020.9 1020.9 0.0
18/05:00am 1.8 0.1 1.7 99 0.0 CALM 0 0 0 0 1020.7 1020.7 0.0
18/04:30am 2.1 0.4 2.1 100 0.0 CALM 0 0 0 0 1020.6 1020.6 0.0
18/04:00am 2.3 0.7 2.2 99 0.0 CALM 0 0 0 0 1020.6 1020.6 0.0
18/03:30am 2.4 0.8 2.3 99 0.0 CALM 0 0 0 0 1020.5 1020.5 0.0
18/03:00am 2.6 1.0 2.6 100 0.0 CALM 0 0 0 0 1020.6 1020.6 0.0
18/02:30am 3.7 2.3 3.7 100 0.0 CALM 0 0 0 0 1020.5 1020.5 0.0
18/02:00am 3.3 1.8 3.2 99 0.0 CALM 0 0 0 0 1020.4 1020.4 0.0
18/01:30am 3.7 2.3 3.6 99 0.0 CALM 0 0 0 0 1020.4 1020.4 0.0
18/01:00am 3.9 2.5 3.8 99 0.0 CALM 0 0 0 0 1020.5 1020.5 0.0
18/12:30am 4.1 2.7 3.7 97 0.2 CALM 0 0 0 0 1020.7 1020.7 0.0
18/12:00am 5.2 4.1 4.9 98 0.1 CALM 0 0 0 0 1020.6 1020.6 0.0
 
Date/Time
EST
Temp
°C
App
Temp
°C
Dew
Point
°C
Rel
Hum
%
Delta-T
°C
Wind Press
QNH
hPa
Press
MSL
hPa
Rain since
9am
mm
Dir  Spd
km/h
Gust
km/h
Spd
kts
Gust
kts
17/11:30pm 5.0 3.8 4.6 97 0.2 CALM 0 0 0 0 1020.6 1020.6 0.0
17/11:00pm 5.5 4.4 4.9 96 0.3 CALM 0 0 0 0 1020.8 1020.8 0.0

Other Formats:

Comma delimited format used in spreadsheet applications
http://www.bom.gov.au/fwo/IDQ60801/IDQ60801.94566.axf

JavaScript Object Notation format (JSON) in row-major order
http://www.bom.gov.au/fwo/IDQ60801/IDQ60801.94566.json